Time;durP1;ratioP1;P1;durP2;ratioP2;P2;SDS_P1;SDS_P2;PMS_P1;PMS_P2;Temp;Humidity;BMP_temperature;BMP_pressure;BME280_temperature;BME280_humidity;BME280_pressure;Samples;Min_cycle;Max_cycle;Signal;HPM_P1;HPM_P2
2023/12/04 04:56:38;;;;;;;1999.90;999.90;;;;;;;;;;5277784;23;20719;-69
2023/12/04 04:59:23;;;;;;;1999.90;999.90;;;;;;;;;;4995813;28;20410;-70
2023/12/04 05:02:08;;;;;;;1999.90;999.90;;;;;;;;;;5002539;28;20325;-71
2023/12/04 05:04:53;;;;;;;1999.90;999.90;;;;;;;;;;5000599;28;20211;-70
2023/12/04 05:07:38;;;;;;;1999.90;999.90;;;;;;;;;;4982836;28;20791;-71
2023/12/04 05:10:23;;;;;;;1999.90;999.90;;;;;;;;;;4955824;29;20946;-71
2023/12/04 05:13:09;;;;;;;1999.90;999.90;;;;;;;;;;4955743;29;20434;-71
2023/12/04 05:15:54;;;;;;;1999.90;999.90;;;;;;;;;;4958822;28;20231;-71
2023/12/04 05:18:39;;;;;;;1999.90;999.90;;;;;;;;;;4976082;28;20484;-69
2023/12/04 05:21:24;;;;;;;1999.90;999.90;;;;;;;;;;4971209;28;20448;-72
2023/12/04 05:24:09;;;;;;;1999.90;999.90;;;;;;;;;;4966606;28;20493;-71
2023/12/04 05:26:54;;;;;;;1999.90;999.90;;;;;;;;;;4980516;28;20645;-71
2023/12/04 05:29:40;;;;;;;1999.90;999.90;;;;;;;;;;4984179;28;20207;-71
2023/12/04 05:32:25;;;;;;;1999.90;999.90;;;;;;;;;;4976439;28;20448;-70
2023/12/04 05:35:10;;;;;;;1999.90;999.90;;;;;;;;;;4979611;28;20966;-71
2023/12/04 05:37:55;;;;;;;1999.90;999.90;;;;;;;;;;4979662;28;20214;-72
2023/12/04 05:40:39;;;;;;;1999.90;999.90;;;;;;;;;;4989842;28;20214;-71
2023/12/04 05:43:25;;;;;;;1999.90;999.90;;;;;;;;;;4968405;28;20454;-71
2023/12/04 05:46:11;;;;;;;1999.90;999.90;;;;;;;;;;4970196;28;20238;-71
2023/12/04 05:48:56;;;;;;;1999.90;999.90;;;;;;;;;;4978417;28;20557;-70
2023/12/04 05:51:40;;;;;;;1999.90;999.90;;;;;;;;;;4974149;28;20432;-70
2023/12/04 05:54:25;;;;;;;1999.90;999.90;;;;;;;;;;4978051;28;20488;-71
2023/12/04 05:57:10;;;;;;;1999.90;999.90;;;;;;;;;;4971001;28;20217;-71
2023/12/04 05:59:55;;;;;;;1999.90;999.90;;;;;;;;;;4976165;28;20875;-71
2023/12/04 06:02:42;;;;;;;1999.90;999.90;;;;;;;;;;4978077;28;20242;-72
2023/12/04 06:05:27;;;;;;;1999.90;999.90;;;;;;;;;;4979148;28;20596;-71
2023/12/04 06:08:12;;;;;;;1999.90;999.90;;;;;;;;;;4958343;28;20418;-72
2023/12/04 06:10:57;;;;;;;1999.90;999.90;;;;;;;;;;4973937;28;20564;-71
2023/12/04 06:13:42;;;;;;;1999.90;999.90;;;;;;;;;;4968613;28;20515;-72
2023/12/04 06:16:27;;;;;;;1999.90;999.90;;;;;;;;;;4978847;28;20231;-70
2023/12/04 06:19:14;;;;;;;1999.90;999.90;;;;;;;;;;4967856;28;20336;-72
2023/12/04 06:21:59;;;;;;;1999.90;999.90;;;;;;;;;;4974134;28;20212;-72
2023/12/04 06:24:44;;;;;;;1999.90;999.90;;;;;;;;;;4972951;28;20216;-72
2023/12/04 06:27:29;;;;;;;1999.90;999.90;;;;;;;;;;4973640;28;20220;-72
2023/12/04 06:30:15;;;;;;;1999.90;999.90;;;;;;;;;;4973358;28;20291;-72
2023/12/04 06:33:00;;;;;;;1999.90;999.90;;;;;;;;;;4981196;28;20235;-72
2023/12/04 06:35:47;;;;;;;1999.90;999.90;;;;;;;;;;4978029;28;20310;-72
2023/12/04 06:38:33;;;;;;;1999.90;999.90;;;;;;;;;;4961694;28;20339;-72
2023/12/04 06:41:18;;;;;;;1999.90;999.90;;;;;;;;;;4981280;28;20216;-72
2023/12/04 06:44:04;;;;;;;1999.90;999.90;;;;;;;;;;4970334;28;20824;-71
2023/12/04 06:46:50;;;;;;;1999.90;999.90;;;;;;;;;;4976830;28;20235;-72
2023/12/04 06:49:35;;;;;;;1999.90;999.90;;;;;;;;;;4970970;28;20231;-72
2023/12/04 06:52:21;;;;;;;1999.90;999.90;;;;;;;;;;4977210;28;20231;-72
2023/12/04 06:55:06;;;;;;;1999.90;999.90;;;;;;;;;;4973994;28;20472;-71
2023/12/04 06:57:51;;;;;;;1999.90;999.90;;;;;;;;;;4971897;28;20725;-73
2023/12/04 07:00:36;;;;;;;1999.90;999.90;;;;;;;;;;4978718;28;20565;-72
2023/12/04 07:03:21;;;;;;;1999.90;999.90;;;;;;;;;;4980948;28;20220;-72
2023/12/04 07:06:07;;;;;;;1999.90;999.90;;;;;;;;;;4972389;28;20739;-72
2023/12/04 07:08:53;;;;;;;1999.90;999.90;;;;;;;;;;4975013;28;20462;-72
2023/12/04 07:11:38;;;;;;;1999.90;999.90;;;;;;;;;;4967780;28;20914;-71
2023/12/04 07:14:23;;;;;;;1999.90;999.90;;;;;;;;;;4972144;28;20431;-72
2023/12/04 07:17:07;;;;;;;1999.90;999.90;;;;;;;;;;4971781;28;20242;-72
2023/12/04 07:19:53;;;;;;;1999.90;999.90;;;;;;;;;;4980967;28;20261;-72
2023/12/04 07:22:38;;;;;;;1999.90;999.90;;;;;;;;;;4979024;28;20254;-72
2023/12/04 07:25:24;;;;;;;1999.90;999.90;;;;;;;;;;4965157;28;20302;-72
2023/12/04 07:28:09;;;;;;;1999.90;999.90;;;;;;;;;;4974858;28;20951;-72
2023/12/04 07:30:55;;;;;;;1999.90;999.90;;;;;;;;;;4972799;28;20508;-72
2023/12/04 07:33:40;;;;;;;1999.90;999.90;;;;;;;;;;4968127;28;20303;-71
2023/12/04 07:36:25;;;;;;;1999.90;999.90;;;;;;;;;;4979937;28;20278;-71
2023/12/04 07:39:11;;;;;;;1999.90;999.90;;;;;;;;;;4974230;28;20651;-71
2023/12/04 07:41:57;;;;;;;1999.90;999.90;;;;;;;;;;4983936;28;20203;-71
2023/12/04 07:44:42;;;;;;;1999.90;999.90;;;;;;;;;;4962191;28;20251;-73
2023/12/04 07:47:27;;;;;;;1999.90;999.90;;;;;;;;;;4965435;28;20801;-72
2023/12/04 07:50:12;;;;;;;1999.90;999.90;;;;;;;;;;4963454;28;20281;-72
2023/12/04 07:52:57;;;;;;;1999.90;999.90;;;;;;;;;;4976817;28;20287;-72
2023/12/04 07:55:43;;;;;;;1999.90;999.90;;;;;;;;;;4973750;28;20246;-72
2023/12/04 07:58:31;;;;;;;1999.90;999.90;;;;;;;;;;4980651;28;20585;-72
2023/12/04 08:01:16;;;;;;;1999.90;999.90;;;;;;;;;;4971735;28;20220;-72
2023/12/04 08:04:00;;;;;;;1999.90;999.90;;;;;;;;;;4972642;28;20212;-72
2023/12/04 08:06:46;;;;;;;1999.90;999.90;;;;;;;;;;4970126;28;20608;-70
2023/12/04 08:09:31;;;;;;;1999.90;999.90;;;;;;;;;;4965392;28;20433;-72
2023/12/04 08:12:16;;;;;;;1999.90;999.90;;;;;;;;;;4964022;28;20491;-72
2023/12/04 08:15:03;;;;;;;1999.90;999.90;;;;;;;;;;4982810;28;20227;-72
2023/12/04 08:17:48;;;;;;;1999.90;999.90;;;;;;;;;;4970592;28;20429;-72
2023/12/04 08:20:32;;;;;;;1999.90;999.90;;;;;;;;;;4969365;28;20704;-71
2023/12/04 08:23:17;;;;;;;1999.90;999.90;;;;;;;;;;4981811;28;20637;-71
2023/12/04 08:26:02;;;;;;;1999.90;999.90;;;;;;;;;;4975886;28;20228;-71
2023/12/04 08:28:48;;;;;;;1999.90;999.90;;;;;;;;;;4973985;28;20674;-70
2023/12/04 08:31:35;;;;;;;1999.90;999.90;;;;;;;;;;4976990;28;20209;-71
2023/12/04 08:34:20;;;;;;;1999.90;999.90;;;;;;;;;;4968990;28;20442;-72
2023/12/04 08:37:05;;;;;;;1999.90;999.90;;;;;;;;;;4968239;28;20281;-73
2023/12/04 08:39:50;;;;;;;1999.90;999.90;;;;;;;;;;4975569;28;20208;-72
2023/12/04 08:42:35;;;;;;;1999.90;999.90;;;;;;;;;;4975688;28;20216;-73
2023/12/04 08:45:20;;;;;;;1999.90;999.90;;;;;;;;;;4974081;28;20227;-73
2023/12/04 08:48:06;;;;;;;1999.90;999.90;;;;;;;;;;4983540;28;20273;-72
2023/12/04 08:50:51;;;;;;;1999.90;999.90;;;;;;;;;;4982193;28;20294;-71
2023/12/04 08:53:36;;;;;;;1999.90;999.90;;;;;;;;;;4980968;28;20294;-70
2023/12/04 08:56:21;;;;;;;1999.90;999.90;;;;;;;;;;4982690;28;20299;-71
2023/12/04 08:59:06;;;;;;;1999.90;999.90;;;;;;;;;;4975196;28;20215;-72
2023/12/04 09:01:51;;;;;;;1999.90;999.90;;;;;;;;;;4975544;28;20216;-71
2023/12/04 09:04:38;;;;;;;1999.90;999.90;;;;;;;;;;4975941;28;20287;-72
2023/12/04 09:07:23;;;;;;;1999.90;999.90;;;;;;;;;;4975326;28;20203;-71
2023/12/04 09:10:08;;;;;;;1999.90;999.90;;;;;;;;;;4981723;28;20259;-70
2023/12/04 09:12:53;;;;;;;1999.90;999.90;;;;;;;;;;4975878;28;20212;-72
2023/12/04 09:15:38;;;;;;;1999.90;999.90;;;;;;;;;;4984010;28;20242;-72
2023/12/04 09:18:23;;;;;;;1999.90;999.90;;;;;;;;;;4977477;28;20224;-72
2023/12/04 09:21:09;;;;;;;1999.90;999.90;;;;;;;;;;4971348;28;20264;-71
2023/12/04 09:23:54;;;;;;;1999.90;999.90;;;;;;;;;;4982895;28;20591;-71
2023/12/04 09:26:39;;;;;;;1999.90;999.90;;;;;;;;;;4977596;28;20243;-71
2023/12/04 09:29:24;;;;;;;1999.90;999.90;;;;;;;;;;4977152;28;20220;-71
2023/12/04 09:32:09;;;;;;;1999.90;999.90;;;;;;;;;;4975726;28;20891;-70
2023/12/04 09:34:54;;;;;;;1999.90;999.90;;;;;;;;;;4977001;28;20244;-71
2023/12/04 09:37:40;;;;;;;1999.90;999.90;;;;;;;;;;4978383;28;20224;-73
2023/12/04 09:40:26;;;;;;;1999.90;999.90;;;;;;;;;;4983805;28;20202;-73
2023/12/04 09:43:11;;;;;;;1999.90;999.90;;;;;;;;;;4979531;28;20701;-72
2023/12/04 09:45:56;;;;;;;1999.90;999.90;;;;;;;;;;4976273;28;20243;-72
2023/12/04 09:48:42;;;;;;;1999.90;999.90;;;;;;;;;;4977254;28;20266;-72
2023/12/04 09:51:28;;;;;;;1999.90;999.90;;;;;;;;;;4975117;28;20595;-72
2023/12/04 09:54:17;;;;;;;1999.90;999.90;;;;;;;;;;4971594;28;20425;-72
2023/12/04 09:57:03;;;;;;;1999.90;999.90;;;;;;;;;;4972791;28;20728;-71
2023/12/04 09:59:48;;;;;;;1999.90;999.90;;;;;;;;;;4973029;28;20346;-71
2023/12/04 10:02:34;;;;;;;1999.90;999.90;;;;;;;;;;4976761;28;20696;-72
2023/12/04 10:05:18;;;;;;;1999.90;999.90;;;;;;;;;;4976327;28;20235;-72
2023/12/04 10:08:04;;;;;;;1999.90;999.90;;;;;;;;;;4972311;28;20232;-72
2023/12/04 10:10:50;;;;;;;1999.90;999.90;;;;;;;;;;4972087;28;20227;-73
2023/12/04 10:13:35;;;;;;;1999.90;999.90;;;;;;;;;;4972963;28;20220;-74
2023/12/04 10:16:33;;;;;;;1999.90;999.90;;;;;;;;;;4978100;28;20306;-71
2023/12/04 10:19:20;;;;;;;1999.90;999.90;;;;;;;;;;4976696;28;20938;-73
2023/12/04 10:22:10;;;;;;;1999.90;999.90;;;;;;;;;;4971104;28;20714;-72
2023/12/04 10:24:55;;;;;;;1999.90;999.90;;;;;;;;;;4971554;28;20216;-72
2023/12/04 10:27:41;;;;;;;1999.90;999.90;;;;;;;;;;4970468;28;20692;-72
2023/12/04 10:30:27;;;;;;;1999.90;999.90;;;;;;;;;;4974791;28;20207;-72
2023/12/04 10:33:14;;;;;;;1999.90;999.90;;;;;;;;;;4977288;28;20294;-70
2023/12/04 10:35:58;;;;;;;1999.90;999.90;;;;;;;;;;4972041;28;20235;-71
2023/12/04 10:38:43;;;;;;;1999.90;999.90;;;;;;;;;;4970736;28;20273;-71
2023/12/04 10:41:28;;;;;;;1999.90;999.90;;;;;;;;;;4974685;28;20215;-71
2023/12/04 10:44:18;;;;;;;1999.90;999.90;;;;;;;;;;4973763;28;20819;-70
2023/12/04 10:47:04;;;;;;;1999.90;999.90;;;;;;;;;;4977215;28;20225;-71
2023/12/04 10:49:50;;;;;;;1999.90;999.90;;;;;;;;;;4976476;28;20727;-72
2023/12/04 10:52:36;;;;;;;1999.90;999.90;;;;;;;;;;4976964;28;20216;-72
2023/12/04 10:55:25;;;;;;;1999.90;999.90;;;;;;;;;;4976766;28;20235;-71
2023/12/04 10:58:10;;;;;;;1999.90;999.90;;;;;;;;;;4971478;28;20591;-71
2023/12/04 11:00:57;;;;;;;1999.90;999.90;;;;;;;;;;4976666;28;20216;-71
2023/12/04 11:03:44;;;;;;;1999.90;999.90;;;;;;;;;;4978001;28;20591;-70
2023/12/04 11:06:30;;;;;;;1999.90;999.90;;;;;;;;;;4972841;28;20226;-71
2023/12/04 11:09:16;;;;;;;1999.90;999.90;;;;;;;;;;4970284;28;20211;-71
2023/12/04 11:12:03;;;;;;;1999.90;999.90;;;;;;;;;;4972304;28;20514;-71
2023/12/04 11:14:54;;;;;;;1999.90;999.90;;;;;;;;;;4974990;28;20227;-71
2023/12/04 11:17:43;;;;;;;1999.90;999.90;;;;;;;;;;4976549;28;20594;-70
2023/12/04 11:20:29;;;;;;;1999.90;999.90;;;;;;;;;;4971833;28;20211;-71
2023/12/04 11:23:15;;;;;;;1999.90;999.90;;;;;;;;;;4976111;28;20255;-69
2023/12/04 11:26:01;;;;;;;1999.90;999.90;;;;;;;;;;4971911;28;20311;-70
2023/12/04 11:28:46;;;;;;;1999.90;999.90;;;;;;;;;;4976004;28;20211;-69
2023/12/04 11:31:31;;;;;;;1999.90;999.90;;;;;;;;;;4976350;28;20907;-69
2023/12/04 11:34:18;;;;;;;1999.90;999.90;;;;;;;;;;4973472;28;20215;-69
2023/12/04 11:37:03;;;;;;;1999.90;999.90;;;;;;;;;;4975329;28;20574;-70
2023/12/04 11:39:49;;;;;;;1999.90;999.90;;;;;;;;;;4975914;28;20302;-70
2023/12/04 11:42:35;;;;;;;1999.90;999.90;;;;;;;;;;4983474;28;20230;-70
2023/12/04 11:45:21;;;;;;;1999.90;999.90;;;;;;;;;;4972539;28;20267;-73
2023/12/04 11:48:06;;;;;;;1999.90;999.90;;;;;;;;;;4979769;28;20228;-71
2023/12/04 11:50:52;;;;;;;1999.90;999.90;;;;;;;;;;4970422;28;20561;-72
2023/12/04 11:53:41;;;;;;;1999.90;999.90;;;;;;;;;;4989352;28;20776;-71
2023/12/04 11:56:26;;;;;;;1999.90;999.90;;;;;;;;;;4973409;28;20236;-71
2023/12/04 11:59:12;;;;;;;1999.90;999.90;;;;;;;;;;4978524;28;20219;-73
2023/12/04 12:01:57;;;;;;;1999.90;999.90;;;;;;;;;;4979057;28;20212;-70
2023/12/04 12:04:42;;;;;;;1999.90;999.90;;;;;;;;;;4982831;28;20219;-70
2023/12/04 12:07:29;;;;;;;1999.90;999.90;;;;;;;;;;4981501;28;20204;-70
2023/12/04 12:10:14;;;;;;;1999.90;999.90;;;;;;;;;;4974928;28;21004;-71
2023/12/04 12:12:59;;;;;;;1999.90;999.90;;;;;;;;;;4987075;28;20577;-70
2023/12/04 12:15:47;;;;;;;1999.90;999.90;;;;;;;;;;4987600;28;20227;-70
2023/12/04 12:18:35;;;;;;;1999.90;999.90;;;;;;;;;;4973045;28;20989;-70
2023/12/04 12:21:20;;;;;;;1999.90;999.90;;;;;;;;;;4971399;28;20212;-70
2023/12/04 12:24:07;;;;;;;1999.90;999.90;;;;;;;;;;4976228;28;20300;-70
2023/12/04 12:26:54;;;;;;;1999.90;999.90;;;;;;;;;;4978143;28;20231;-70
2023/12/04 12:29:39;;;;;;;1999.90;999.90;;;;;;;;;;4975457;28;20281;-70
2023/12/04 12:32:24;;;;;;;1999.90;999.90;;;;;;;;;;4979584;28;20411;-70
2023/12/04 12:35:09;;;;;;;1999.90;999.90;;;;;;;;;;4973159;28;20239;-69
2023/12/04 12:37:56;;;;;;;1999.90;999.90;;;;;;;;;;4973437;28;20251;-69
2023/12/04 12:40:42;;;;;;;1999.90;999.90;;;;;;;;;;4976252;28;20259;-70
2023/12/04 12:43:28;;;;;;;1999.90;999.90;;;;;;;;;;4976962;28;20211;-70
2023/12/04 12:46:13;;;;;;;1999.90;999.90;;;;;;;;;;4977597;28;20378;-70
2023/12/04 12:48:58;;;;;;;1999.90;999.90;;;;;;;;;;4992136;28;20684;-70
2023/12/04 12:51:43;;;;;;;1999.90;999.90;;;;;;;;;;4978132;28;20220;-69
2023/12/04 12:54:32;;;;;;;1999.90;999.90;;;;;;;;;;4984004;28;20690;-70
2023/12/04 12:57:18;;;;;;;1999.90;999.90;;;;;;;;;;4975334;28;20456;-71
2023/12/04 13:00:05;;;;;;;1999.90;999.90;;;;;;;;;;4982188;28;20216;-70
2023/12/04 13:02:52;;;;;;;1999.90;999.90;;;;;;;;;;4975498;28;20298;-70
2023/12/04 13:05:37;;;;;;;1999.90;999.90;;;;;;;;;;4979217;28;20235;-71
2023/12/04 13:08:22;;;;;;;1999.90;999.90;;;;;;;;;;4979407;28;20208;-70
2023/12/04 13:11:08;;;;;;;1999.90;999.90;;;;;;;;;;4981328;28;20708;-70
2023/12/04 13:13:56;;;;;;;1999.90;999.90;;;;;;;;;;4982579;28;20229;-70
2023/12/04 13:16:42;;;;;;;1999.90;999.90;;;;;;;;;;4973030;28;20224;-70
2023/12/04 13:19:26;;;;;;;1999.90;999.90;;;;;;;;;;4982716;28;20211;-70
2023/12/04 13:22:11;;;;;;;1999.90;999.90;;;;;;;;;;4975909;28;20708;-70
2023/12/04 13:24:56;;;;;;;1999.90;999.90;;;;;;;;;;4972984;28;20216;-70
2023/12/04 13:27:41;;;;;;;1999.90;999.90;;;;;;;;;;4979604;28;20211;-70
2023/12/04 13:30:27;;;;;;;1999.90;999.90;;;;;;;;;;4976113;28;20219;-70
2023/12/04 13:33:12;;;;;;;1999.90;999.90;;;;;;;;;;4976982;28;20616;-70
2023/12/04 13:35:57;;;;;;;1999.90;999.90;;;;;;;;;;4976973;28;20322;-71
2023/12/04 13:38:42;;;;;;;1999.90;999.90;;;;;;;;;;4977609;28;20239;-69
2023/12/04 13:44:30;;;;;;;1999.90;999.90;;;;;;;;;;4977479;28;20215;-71
2023/12/04 13:47:17;;;;;;;1999.90;999.90;;;;;;;;;;4977960;28;20583;-70
2023/12/04 13:50:03;;;;;;;1999.90;999.90;;;;;;;;;;4969227;28;20290;-70
2023/12/04 13:52:55;;;;;;;1999.90;999.90;;;;;;;;;;4979052;28;20222;-70
2023/12/04 13:55:55;;;;;;;1999.90;999.90;;;;;;;;;;4982556;28;20747;-71
2023/12/04 13:58:44;;;;;;;1999.90;999.90;;;;;;;;;;4973861;28;20263;-70
2023/12/04 14:01:29;;;;;;;1999.90;999.90;;;;;;;;;;4972915;28;20343;-69
2023/12/04 14:04:15;;;;;;;1999.90;999.90;;;;;;;;;;4972110;28;20212;-70
2023/12/04 14:07:01;;;;;;;1999.90;999.90;;;;;;;;;;4971846;28;20328;-69
2023/12/04 14:09:47;;;;;;;1999.90;999.90;;;;;;;;;;4976349;28;20323;-69
2023/12/04 14:12:31;;;;;;;1999.90;999.90;;;;;;;;;;4972492;28;20291;-69
2023/12/04 14:15:16;;;;;;;1999.90;999.90;;;;;;;;;;4973277;28;20479;-69
2023/12/04 14:18:01;;;;;;;1999.90;999.90;;;;;;;;;;4975518;28;20239;-69
2023/12/04 14:20:48;;;;;;;1999.90;999.90;;;;;;;;;;4976732;28;20659;-69
2023/12/04 14:23:34;;;;;;;1999.90;999.90;;;;;;;;;;4971204;28;20216;-68
2023/12/04 14:26:18;;;;;;;1999.90;999.90;;;;;;;;;;4972440;28;20232;-69
2023/12/04 14:29:03;;;;;;;1999.90;999.90;;;;;;;;;;4981847;28;20203;-70
2023/12/04 14:31:48;;;;;;;1999.90;999.90;;;;;;;;;;4973596;28;20211;-69
2023/12/04 14:34:33;;;;;;;1999.90;999.90;;;;;;;;;;4980427;28;20223;-69
2023/12/04 14:37:20;;;;;;;1999.90;999.90;;;;;;;;;;4978472;28;20211;-70
2023/12/04 14:40:05;;;;;;;1999.90;999.90;;;;;;;;;;4981155;28;20262;-70
2023/12/04 14:42:50;;;;;;;1999.90;999.90;;;;;;;;;;4977614;28;20684;-69
2023/12/04 14:45:35;;;;;;;1999.90;999.90;;;;;;;;;;4985503;28;20226;-70
2023/12/04 14:48:21;;;;;;;1999.90;999.90;;;;;;;;;;4978080;28;20222;-69
2023/12/04 14:51:06;;;;;;;1999.90;999.90;;;;;;;;;;4970992;28;20215;-69
2023/12/04 14:54:10;;;;;;;1999.90;999.90;;;;;;;;;;4970348;28;20304;-70
2023/12/04 15:03:35;;;;;;;1999.90;999.90;;;;;;;;;;4976372;28;20212;-69
2023/12/04 15:06:43;;;;;;;1999.90;999.90;;;;;;;;;;4971875;28;20348;-69
2023/12/04 15:13:06;;;;;;;1999.90;999.90;;;;;;;;;;4943299;28;20263;-69
2023/12/04 15:16:16;;;;;;;1999.90;999.90;;;;;;;;;;4981860;28;20267;-69
2023/12/04 15:22:00;;;;;;;1999.90;999.90;;;;;;;;;;4969504;28;20215;-70
2023/12/04 15:24:45;;;;;;;1999.90;999.90;;;;;;;;;;4979511;28;20275;-70
2023/12/04 15:27:30;;;;;;;1999.90;999.90;;;;;;;;;;4989715;28;20250;-70
2023/12/04 15:30:16;;;;;;;1999.90;999.90;;;;;;;;;;4978522;28;20215;-69
2023/12/04 15:33:00;;;;;;;1999.90;999.90;;;;;;;;;;4981733;28;20231;-69
2023/12/04 15:35:44;;;;;;;1999.90;999.90;;;;;;;;;;4977093;28;20400;-70
2023/12/04 15:38:30;;;;;;;1999.90;999.90;;;;;;;;;;4992198;28;20215;-68
2023/12/04 15:41:19;;;;;;;1999.90;999.90;;;;;;;;;;4981017;28;20711;-69
2023/12/04 15:44:04;;;;;;;1999.90;999.90;;;;;;;;;;4975470;28;20212;-69
2023/12/04 15:46:49;;;;;;;1999.90;999.90;;;;;;;;;;4981456;28;20295;-69
2023/12/04 15:49:34;;;;;;;1999.90;999.90;;;;;;;;;;4982527;28;20712;-69
2023/12/04 15:52:18;;;;;;;1999.90;999.90;;;;;;;;;;4979009;28;20216;-68
2023/12/04 15:55:03;;;;;;;1999.90;999.90;;;;;;;;;;4984616;28;20644;-69
2023/12/04 15:57:54;;;;;;;1999.90;999.90;;;;;;;;;;4980115;28;20215;-69
2023/12/04 16:00:39;;;;;;;1999.90;999.90;;;;;;;;;;4980978;28;20207;-67
2023/12/04 16:03:24;;;;;;;1999.90;999.90;;;;;;;;;;4982457;28;20217;-69
2023/12/04 16:06:09;;;;;;;1999.90;999.90;;;;;;;;;;4982274;28;20240;-69
2023/12/04 16:08:56;;;;;;;1999.90;999.90;;;;;;;;;;4978094;28;20207;-69
2023/12/04 16:11:41;;;;;;;1999.90;999.90;;;;;;;;;;4979182;28;20208;-69
2023/12/04 16:14:27;;;;;;;1999.90;999.90;;;;;;;;;;4981364;28;20427;-70
2023/12/04 16:17:12;;;;;;;1999.90;999.90;;;;;;;;;;4985287;28;20715;-70
2023/12/04 16:19:59;;;;;;;1999.90;999.90;;;;;;;;;;4983128;28;20220;-69
2023/12/04 16:22:45;;;;;;;1999.90;999.90;;;;;;;;;;4981921;28;20227;-71
2023/12/04 16:25:30;;;;;;;1999.90;999.90;;;;;;;;;;4988827;28;20274;-70
2023/12/04 16:28:16;;;;;;;1999.90;999.90;;;;;;;;;;4981542;28;20224;-70
2023/12/04 16:31:02;;;;;;;1999.90;999.90;;;;;;;;;;4982124;28;20409;-69
2023/12/04 16:33:49;;;;;;;1999.90;999.90;;;;;;;;;;4990080;28;20277;-70
2023/12/04 16:36:34;;;;;;;1999.90;999.90;;;;;;;;;;4976143;28;21267;-69
2023/12/04 16:39:20;;;;;;;1999.90;999.90;;;;;;;;;;4974677;28;20255;-70
2023/12/04 16:42:05;;;;;;;1999.90;999.90;;;;;;;;;;4979970;28;20582;-69
2023/12/04 16:44:50;;;;;;;1999.90;999.90;;;;;;;;;;4977135;28;20332;-69
2023/12/04 16:47:37;;;;;;;1999.90;999.90;;;;;;;;;;4978020;28;21310;-69
2023/12/04 16:50:23;;;;;;;1999.90;999.90;;;;;;;;;;4979051;28;20735;-69
2023/12/04 16:53:08;;;;;;;1999.90;999.90;;;;;;;;;;4978915;28;20382;-69
2023/12/04 16:55:53;;;;;;;1999.90;999.90;;;;;;;;;;4974486;28;20235;-69
2023/12/04 16:58:38;;;;;;;1999.90;999.90;;;;;;;;;;4982514;28;20424;-69
2023/12/04 17:01:23;;;;;;;1999.90;999.90;;;;;;;;;;4987501;28;20207;-70
2023/12/04 17:04:09;;;;;;;1999.90;999.90;;;;;;;;;;4986568;28;20692;-69
2023/12/04 17:06:56;;;;;;;1999.90;999.90;;;;;;;;;;4986085;28;20227;-68
2023/12/04 17:09:41;;;;;;;1999.90;999.90;;;;;;;;;;4983178;28;20210;-69
2023/12/04 17:12:26;;;;;;;1999.90;999.90;;;;;;;;;;4982965;28;20202;-70
2023/12/04 17:15:11;;;;;;;1999.90;999.90;;;;;;;;;;4984661;28;20238;-69
2023/12/04 17:17:56;;;;;;;1999.90;999.90;;;;;;;;;;4979999;28;20579;-69
2023/12/04 17:20:42;;;;;;;1999.90;999.90;;;;;;;;;;4973262;28;20724;-69
2023/12/04 17:23:27;;;;;;;1999.90;999.90;;;;;;;;;;4973781;28;20212;-70
2023/12/04 17:26:12;;;;;;;1999.90;999.90;;;;;;;;;;4976221;28;20600;-69
2023/12/04 17:28:58;;;;;;;1999.90;999.90;;;;;;;;;;4983885;28;20215;-68
2023/12/04 17:31:44;;;;;;;1999.90;999.90;;;;;;;;;;4973531;28;20226;-68
2023/12/04 17:34:28;;;;;;;1999.90;999.90;;;;;;;;;;4984012;28;20255;-68
2023/12/04 17:37:16;;;;;;;1999.90;999.90;;;;;;;;;;4977201;28;20219;-67
2023/12/04 17:40:02;;;;;;;1999.90;999.90;;;;;;;;;;4977430;28;20231;-69
2023/12/04 17:42:47;;;;;;;1999.90;999.90;;;;;;;;;;4975072;28;20215;-68
2023/12/04 17:45:33;;;;;;;1999.90;999.90;;;;;;;;;;4981635;28;20228;-68
2023/12/04 17:48:18;;;;;;;1999.90;999.90;;;;;;;;;;4980040;28;20290;-68
2023/12/04 17:51:03;;;;;;;1999.90;999.90;;;;;;;;;;4974466;28;20414;-68
2023/12/04 17:53:50;;;;;;;1999.90;999.90;;;;;;;;;;4971094;28;20697;-68
2023/12/04 17:56:35;;;;;;;1999.90;999.90;;;;;;;;;;4985000;28;20235;-67
2023/12/04 17:59:20;;;;;;;1999.90;999.90;;;;;;;;;;4982208;28;20362;-66
2023/12/04 18:02:09;;;;;;;1999.90;999.90;;;;;;;;;;4979808;28;20212;-66
2023/12/04 18:04:54;;;;;;;1999.90;999.90;;;;;;;;;;4979693;28;20804;-68
2023/12/04 18:07:38;;;;;;;1999.90;999.90;;;;;;;;;;4976147;28;20414;-67
2023/12/04 18:10:25;;;;;;;1999.90;999.90;;;;;;;;;;4974978;28;20755;-67
2023/12/04 18:13:10;;;;;;;1999.90;999.90;;;;;;;;;;4976854;28;20429;-67
2023/12/04 18:15:55;;;;;;;1999.90;999.90;;;;;;;;;;4972075;28;20231;-68
2023/12/04 18:18:40;;;;;;;1999.90;999.90;;;;;;;;;;4969237;28;20283;-68
2023/12/04 18:21:25;;;;;;;1999.90;999.90;;;;;;;;;;4973645;28;20232;-68
2023/12/04 18:24:10;;;;;;;1999.90;999.90;;;;;;;;;;4973338;28;20234;-68
2023/12/04 18:26:57;;;;;;;1999.90;999.90;;;;;;;;;;4978340;28;20247;-68
2023/12/04 18:29:42;;;;;;;1999.90;999.90;;;;;;;;;;4973481;28;20429;-68
2023/12/04 18:32:28;;;;;;;1999.90;999.90;;;;;;;;;;4973345;28;20446;-68
2023/12/04 18:35:14;;;;;;;1999.90;999.90;;;;;;;;;;4972365;28;20732;-68
2023/12/04 18:38:02;;;;;;;1999.90;999.90;;;;;;;;;;4971496;28;20701;-66
2023/12/04 18:40:47;;;;;;;1999.90;999.90;;;;;;;;;;4977529;28;20315;-68
2023/12/04 18:43:35;;;;;;;1999.90;999.90;;;;;;;;;;4981286;28;20261;-68
2023/12/04 18:46:20;;;;;;;1999.90;999.90;;;;;;;;;;4978733;28;20727;-68
2023/12/04 18:49:06;;;;;;;1999.90;999.90;;;;;;;;;;4978236;28;20540;-68
2023/12/04 18:51:52;;;;;;;1999.90;999.90;;;;;;;;;;4976284;28;20441;-68
2023/12/04 18:54:37;;;;;;;1999.90;999.90;;;;;;;;;;4975015;28;20207;-68
2023/12/04 18:57:22;;;;;;;1999.90;999.90;;;;;;;;;;4971615;28;20208;-67
2023/12/04 19:00:09;;;;;;;1999.90;999.90;;;;;;;;;;4972242;28;20243;-68
2023/12/04 19:02:53;;;;;;;1999.90;999.90;;;;;;;;;;4977720;28;20210;-68
2023/12/04 19:05:38;;;;;;;1999.90;999.90;;;;;;;;;;4975066;28;20320;-68
2023/12/04 19:08:23;;;;;;;1999.90;999.90;;;;;;;;;;4973297;28;20206;-68
2023/12/04 19:11:08;;;;;;;1999.90;999.90;;;;;;;;;;4969743;28;21799;-68
2023/12/04 19:13:53;;;;;;;1999.90;999.90;;;;;;;;;;4977864;28;20295;-68
2023/12/04 19:16:39;;;;;;;1999.90;999.90;;;;;;;;;;4976138;28;20314;-67
2023/12/04 19:19:24;;;;;;;1999.90;999.90;;;;;;;;;;4973516;28;20232;-68
2023/12/04 19:22:09;;;;;;;1999.90;999.90;;;;;;;;;;4974854;28;20701;-68
2023/12/04 19:24:54;;;;;;;1999.90;999.90;;;;;;;;;;4983989;28;21537;-68
2023/12/04 19:27:39;;;;;;;1999.90;999.90;;;;;;;;;;4973079;28;20215;-68
2023/12/04 19:30:24;;;;;;;1999.90;999.90;;;;;;;;;;4974270;28;20259;-68
2023/12/04 19:33:10;;;;;;;1999.90;999.90;;;;;;;;;;4977161;28;20212;-68
2023/12/04 19:35:55;;;;;;;1999.90;999.90;;;;;;;;;;4974171;28;20809;-68
2023/12/04 19:38:40;;;;;;;1999.90;999.90;;;;;;;;;;4975930;28;21366;-68
2023/12/04 19:41:32;;;;;;;1999.90;999.90;;;;;;;;;;4971220;28;20219;-68
2023/12/04 19:44:16;;;;;;;1999.90;999.90;;;;;;;;;;4972448;28;20212;-68
2023/12/04 19:47:01;;;;;;;1999.90;999.90;;;;;;;;;;4981777;28;20231;-68
2023/12/04 19:49:48;;;;;;;1999.90;999.90;;;;;;;;;;4972578;28;20203;-68
2023/12/04 19:52:33;;;;;;;1999.90;999.90;;;;;;;;;;4977972;28;20712;-68
2023/12/04 19:55:18;;;;;;;1999.90;999.90;;;;;;;;;;4970805;28;20251;-67
2023/12/04 19:58:05;;;;;;;1999.90;999.90;;;;;;;;;;4972127;28;20291;-68
2023/12/04 20:00:50;;;;;;;1999.90;999.90;;;;;;;;;;4970405;28;20303;-68
2023/12/04 20:03:35;;;;;;;1999.90;999.90;;;;;;;;;;4985714;28;20218;-68
2023/12/04 20:06:21;;;;;;;1999.90;999.90;;;;;;;;;;4978136;28;20254;-68
2023/12/04 20:09:06;;;;;;;1999.90;999.90;;;;;;;;;;4973895;28;20236;-68
2023/12/04 20:11:52;;;;;;;1999.90;999.90;;;;;;;;;;4973707;28;20583;-68
2023/12/04 20:14:36;;;;;;;1999.90;999.90;;;;;;;;;;4977860;28;20685;-68
2023/12/04 20:17:21;;;;;;;1999.90;999.90;;;;;;;;;;4973651;28;20207;-67
2023/12/04 20:20:08;;;;;;;1999.90;999.90;;;;;;;;;;4979942;28;20727;-68
2023/12/04 20:22:54;;;;;;;1999.90;999.90;;;;;;;;;;4979175;28;20272;-68
2023/12/04 20:25:40;;;;;;;1999.90;999.90;;;;;;;;;;4982487;28;20287;-68
2023/12/04 20:28:25;;;;;;;1999.90;999.90;;;;;;;;;;4980408;28;20220;-68
2023/12/04 20:31:10;;;;;;;1999.90;999.90;;;;;;;;;;4974103;28;20415;-68
2023/12/04 20:33:54;;;;;;;1999.90;999.90;;;;;;;;;;4974926;28;20350;-68
2023/12/04 20:36:40;;;;;;;1999.90;999.90;;;;;;;;;;4975752;28;20246;-68